(°C)
13°
14°
14°
13°
12°
12°
12°
(°C)
СЗ
СЗ
СЗ
СЗ
СЗ
СЗ
ССЗ
(км/ч)
29-45
30-46
28-46
26-46
23-44
22-44
22-42
(мм)
0
1.2
0
0
0
0
0
(%)
35
54
46
38
38
16
15

Высота солнцестояния

/ 60.4°
sun-icon
UV 5
04:57
21:34
Растущая луна (134°)
17:16
02:39

METAR для 51.02°С 71.47°В (UACC)

Время Условия Температура/
Точка росы
Ветер Видимость Погода Облачность Давление Изменить Необработанный
VFR 13°C / 7°C 300º 14kt >10km - Scattered Clouds 2600ft 1007 No Significant change. Runway 22: Wet or puddles, 51-100% contamination with 3mm, friction coefficient 0.55. UACC 210730Z 30007MPS 9999 SCT026CB 13/07 Q1007 R22/290355 NOSIG RMK QFE724/0966
VFR 13°C / 5°C 310º 17kt Gust 29kt >10km - Scattered Clouds 2600ft 1007 No Significant change. Runway 22: Wet or puddles, 51-100% contamination with 3mm, friction coefficient 0.55. UACC 210706Z 31009G15MPS 9999 SCT026CB 13/05 Q1007 R22/290355 NOSIG RMK QFE724/0966
VFR 14°C / 6°C 310º variable 280º to 340º 17kt >10km - Scattered Clouds 2600ft 1006 No Significant change. Runway 22: Wet or puddles, 51-100% contamination with 3mm, friction coefficient 0.55. UACC 210630Z 31009MPS 280V340 9999 SCT026CB 14/06 Q1006 R22/290355 NOSIG RMK QFE724/0965
VFR 13°C / 8°C 310º variable 280º to 350º 14kt >10km - Scattered Clouds 2600ft 1006 No Significant change. Runway 22: Wet or puddles, 51-100% contamination with 3mm, friction coefficient 0.55. UACC 210600Z 31007MPS 280V350 9999 SCT026CB 13/08 Q1006 R22/290355 NOSIG RMK QFE724/0965
VFR 12°C / 7°C 290º 16kt >10km - Scattered Clouds 2500ft 1006 No Significant change. Runway 22: Wet or puddles, 51-100% contamination with 3mm, friction coefficient 0.55. UACC 210530Z 29008MPS 9999 SCT025CB BKN043 12/07 Q1006 R22/290355 NOSIG RMK QFE724/0965
VFR 12°C / 8°C 270º variable 240º to 310º 14kt Gust 23kt >10km - Scattered Clouds 2600ft 1006 No Significant change. Runway 22: Wet or puddles, 51-100% contamination with 3mm, friction coefficient 0.55. UACC 210500Z 27007G12MPS 240V310 9999 SCT026CB 12/08 Q1006 R22/290355 NOSIG RMK QFE724/0965
VFR 10°C / 8°C 280º 12kt >10km Light Showers Rain 3.00mm precipitation Vertical Visibility of 0ft. 1006 No Significant change. Runway 04: Wet or puddles, 51-100% contamination, friction coefficient 0.60. UACC 210430Z 28006MPS 9999 -SHRA SCT036CB 10/08 Q1006 R04/29//60 NOSIG RMK QFE724/0965
VFR 10°C / 7°C 310º variable 290º to 350º 8kt >10km Light Showers Rain 3.00mm precipitation Vertical Visibility of 0ft. 1007 No Significant change. Runway 04: Wet or puddles, 51-100% contamination, friction coefficient 0.60. UACC 210400Z 31004MPS 290V350 9999 -SHRA SCT040CB 10/07 Q1007 R04/29//60 NOSIG RMK QFE724/0965
VFR 11°C / 7°C 340º 8kt >10km Light Showers Rain 3.00mm precipitation Vertical Visibility of 0ft. 1006 No Significant change. Runway 04: Wet or puddles, 51-100% contamination, friction coefficient 0.60. UACC 210330Z 34004MPS 9999 -SHRA SCT046CB 11/07 Q1006 R04/29//60 NOSIG RMK QFE724/0965
VFR 11°C / 7°C 340º variable 310º to 010º 8kt >10km Light Showers Rain 3.00mm precipitation Vertical Visibility of 0ft. 1006 No Significant change. Runway 04: Wet or puddles, 51-100% contamination, friction coefficient 0.60. UACC 210300Z 34004MPS 310V010 9999 -SHRA SCT043CB 11/07 Q1006 R04/29//60 NOSIG RMK QFE724/0965
VFR 12°C / 6°C 330º 10kt >10km Light Showers Rain 3.00mm precipitation Vertical Visibility of 0ft. 1006 No Significant change. Runway 04: Clear and dry, , friction coefficient 0.70. UACC 210230Z 33005MPS 9999 -SHRA SCT036CB 12/06 Q1006 R04/0///70 NOSIG RMK QFE723/0965
VFR 12°C / 6°C 320º variable 290º to 360º 8kt >10km - Scattered Clouds 3600ft 1006 No Significant change. Runway 04: Clear and dry, , friction coefficient 0.70. UACC 210200Z 32004MPS 290V360 9999 SCT036CB 12/06 Q1006 R04/0///70 NOSIG RMK QFE723/0964
VFR 12°C / 6°C 300º 6kt >10km - Scattered Clouds 3600ft 1006 No Significant change. Runway 04: Clear and dry, , friction coefficient 0.70. UACC 210130Z 30003MPS 9999 SCT036CB 12/06 Q1006 R04/0///70 NOSIG RMK QFE723/0964
VFR 12°C / 7°C 300º 6kt >10km - Scattered Clouds 3600ft 1006 No Significant change. Runway 04: Clear and dry, , friction coefficient 0.70. UACC 210100Z 30003MPS 9999 SCT036CB 12/07 Q1006 R04/0///70 NOSIG RMK QFE723/0964
VFR 12°C / 7°C 290º 4kt >10km - Few Clouds 3600ft 1006 No Significant change. Runway 04: Wet or puddles, 26-50% contamination, friction coefficient 0.60. UACC 210030Z 29002MPS 9999 FEW036CB 12/07 Q1006 R04/25//60 NOSIG RMK QFE723/0964
VFR 12°C / 8°C 330º variable 300º to 360º 4kt >10km - Broken Clouds 3600ft 1006 No Significant change. Runway 04: Wet or puddles, 26-50% contamination, friction coefficient 0.60. UACC 210000Z 33002MPS 300V360 9999 BKN036 12/08 Q1006 R04/25//60 NOSIG RMK QFE723/0964
VFR 12°C / 8°C 350º 6kt >10km - Broken Clouds 3600ft 1006 No Significant change. Runway 04: Wet or puddles, 26-50% contamination, friction coefficient 0.60. UACC 202330Z 35003MPS 9999 BKN036 12/08 Q1006 R04/25//60 NOSIG RMK QFE723/0964
VFR 12°C / 10°C 340º 6kt >10km - Few Clouds 700ft 1006 No Significant change. Runway 04: Wet or puddles, 26-50% contamination, friction coefficient 0.60. UACC 202300Z 34003MPS 9999 FEW007 BKN036 12/10 Q1006 R04/25//60 NOSIG RMK QFE723/0964
MVFR 11°C / 10°C 310º 4kt 6000m - Few Clouds 700ft 1006 No Significant change. Runway 04: Wet or puddles, 26-50% contamination, friction coefficient 0.60. UACC 202230Z 31002MPS 6000 FEW007 BKN036 11/10 Q1006 R04/25//60 NOSIG RMK QFE723/0964
LIFR 12°C / 10°C 280º 4kt 260m. Runway 04: Visual range is 800m. patches Fog Vertical Visibility of 0ft. 1005 Temporary: Visibility 0100. Fog . VV002 RMK QFE723/0964 . Runway 04: Wet or puddles, 26-50% contamination, friction coefficient 0.60. UACC 202200Z 28002MPS 0250 R04/0800N BCFG FEW007 12/10 Q1005 R04/25//60 TEMPO 0100 FG VV002 RMK QFE723/0964
LIFR 12°C / 11°C 280º 4kt 140m. Runway 04: Visual range is 600m. patches Fog Vertical Visibility of 0ft. 1005 Temporary: Visibility 0100. Fog . VV002 RMK QBB120 QFE723/0964 . Runway 04: Wet or puddles, 26-50% contamination, friction coefficient 0.60. UACC 202130Z 28002MPS 0150 R04/0600N BCFG SCT004 12/11 Q1005 R04/25//60 TEMPO 0100 FG VV002 RMK QBB120 QFE723/0964
LIFR 12°C / 10°C 280º 6kt 100m. Runway 04: Visual range is 450m. patches Fog Vertical Visibility of 0ft. 1005 No Significant change. Runway 04: Wet or puddles, 26-50% contamination, friction coefficient 0.60. UACC 202111Z 28003MPS 0100 R04/0450 BCFG FEW002 12/10 Q1005 R04/25//60 NOSIG RMK QBB070 QFE723/0964
IFR 12°C / 10°C variable 2kt 3000m Mist Vertical Visibility of 0ft. 1005 No Significant change. Runway 04: Wet or puddles, 26-50% contamination, friction coefficient 0.60. UACC 202100Z VRB01MPS 3000 BR NSC 12/10 Q1005 R04/25//60 NOSIG RMK QFE723/0964
MVFR 12°C / 10°C 330º variable 290º to 020º 4kt 6000m - Scattered Clouds 1400ft 1005 No Significant change. Runway 04: Wet or puddles, 26-50% contamination, friction coefficient 0.60. UACC 202030Z 33002MPS 290V020 6000 SCT014 12/10 Q1005 R04/25//60 NOSIG RMK QFE723/0964

VFR

13°C / 7°C

[Больше]
Ветер 300º 14kt
Видимость >10km
Погода -
Облачность Scattered Clouds 2600ft
Давление 1007
Изменить No Significant change. Runway 22: Wet or puddles, 51-100% contamination with 3mm, friction coefficient 0.55.
Необработанный UACC 210730Z 30007MPS 9999 SCT026CB 13/07 Q1007 R22/290355 NOSIG RMK QFE724/0966

VFR

13°C / 5°C

[Больше]
Ветер 310º 17kt Gust 29kt
Видимость >10km
Погода -
Облачность Scattered Clouds 2600ft
Давление 1007
Изменить No Significant change. Runway 22: Wet or puddles, 51-100% contamination with 3mm, friction coefficient 0.55.
Необработанный UACC 210706Z 31009G15MPS 9999 SCT026CB 13/05 Q1007 R22/290355 NOSIG RMK QFE724/0966

VFR

14°C / 6°C

[Больше]
Ветер 310º variable 280º to 340º 17kt
Видимость >10km
Погода -
Облачность Scattered Clouds 2600ft
Давление 1006
Изменить No Significant change. Runway 22: Wet or puddles, 51-100% contamination with 3mm, friction coefficient 0.55.
Необработанный UACC 210630Z 31009MPS 280V340 9999 SCT026CB 14/06 Q1006 R22/290355 NOSIG RMK QFE724/0965

VFR

13°C / 8°C

[Больше]
Ветер 310º variable 280º to 350º 14kt
Видимость >10km
Погода -
Облачность Scattered Clouds 2600ft
Давление 1006
Изменить No Significant change. Runway 22: Wet or puddles, 51-100% contamination with 3mm, friction coefficient 0.55.
Необработанный UACC 210600Z 31007MPS 280V350 9999 SCT026CB 13/08 Q1006 R22/290355 NOSIG RMK QFE724/0965

VFR

12°C / 7°C

[Больше]
Ветер 290º 16kt
Видимость >10km
Погода -
Облачность Scattered Clouds 2500ft
Давление 1006
Изменить No Significant change. Runway 22: Wet or puddles, 51-100% contamination with 3mm, friction coefficient 0.55.
Необработанный UACC 210530Z 29008MPS 9999 SCT025CB BKN043 12/07 Q1006 R22/290355 NOSIG RMK QFE724/0965

VFR

12°C / 8°C

[Больше]
Ветер 270º variable 240º to 310º 14kt Gust 23kt
Видимость >10km
Погода -
Облачность Scattered Clouds 2600ft
Давление 1006
Изменить No Significant change. Runway 22: Wet or puddles, 51-100% contamination with 3mm, friction coefficient 0.55.
Необработанный UACC 210500Z 27007G12MPS 240V310 9999 SCT026CB 12/08 Q1006 R22/290355 NOSIG RMK QFE724/0965

VFR

10°C / 8°C

[Больше]
Ветер 280º 12kt
Видимость >10km
Погода Light Showers Rain 3.00mm precipitation
Облачность Vertical Visibility of 0ft.
Давление 1006
Изменить No Significant change. Runway 04: Wet or puddles, 51-100% contamination, friction coefficient 0.60.
Необработанный UACC 210430Z 28006MPS 9999 -SHRA SCT036CB 10/08 Q1006 R04/29//60 NOSIG RMK QFE724/0965

VFR

10°C / 7°C

[Больше]
Ветер 310º variable 290º to 350º 8kt
Видимость >10km
Погода Light Showers Rain 3.00mm precipitation
Облачность Vertical Visibility of 0ft.
Давление 1007
Изменить No Significant change. Runway 04: Wet or puddles, 51-100% contamination, friction coefficient 0.60.
Необработанный UACC 210400Z 31004MPS 290V350 9999 -SHRA SCT040CB 10/07 Q1007 R04/29//60 NOSIG RMK QFE724/0965

VFR

11°C / 7°C

[Больше]
Ветер 340º 8kt
Видимость >10km
Погода Light Showers Rain 3.00mm precipitation
Облачность Vertical Visibility of 0ft.
Давление 1006
Изменить No Significant change. Runway 04: Wet or puddles, 51-100% contamination, friction coefficient 0.60.
Необработанный UACC 210330Z 34004MPS 9999 -SHRA SCT046CB 11/07 Q1006 R04/29//60 NOSIG RMK QFE724/0965

VFR

11°C / 7°C

[Больше]
Ветер 340º variable 310º to 010º 8kt
Видимость >10km
Погода Light Showers Rain 3.00mm precipitation
Облачность Vertical Visibility of 0ft.
Давление 1006
Изменить No Significant change. Runway 04: Wet or puddles, 51-100% contamination, friction coefficient 0.60.
Необработанный UACC 210300Z 34004MPS 310V010 9999 -SHRA SCT043CB 11/07 Q1006 R04/29//60 NOSIG RMK QFE724/0965

VFR

12°C / 6°C

[Больше]
Ветер 330º 10kt
Видимость >10km
Погода Light Showers Rain 3.00mm precipitation
Облачность Vertical Visibility of 0ft.
Давление 1006
Изменить No Significant change. Runway 04: Clear and dry, , friction coefficient 0.70.
Необработанный UACC 210230Z 33005MPS 9999 -SHRA SCT036CB 12/06 Q1006 R04/0///70 NOSIG RMK QFE723/0965

VFR

12°C / 6°C

[Больше]
Ветер 320º variable 290º to 360º 8kt
Видимость >10km
Погода -
Облачность Scattered Clouds 3600ft
Давление 1006
Изменить No Significant change. Runway 04: Clear and dry, , friction coefficient 0.70.
Необработанный UACC 210200Z 32004MPS 290V360 9999 SCT036CB 12/06 Q1006 R04/0///70 NOSIG RMK QFE723/0964

VFR

12°C / 6°C

[Больше]
Ветер 300º 6kt
Видимость >10km
Погода -
Облачность Scattered Clouds 3600ft
Давление 1006
Изменить No Significant change. Runway 04: Clear and dry, , friction coefficient 0.70.
Необработанный UACC 210130Z 30003MPS 9999 SCT036CB 12/06 Q1006 R04/0///70 NOSIG RMK QFE723/0964

VFR

12°C / 7°C

[Больше]
Ветер 300º 6kt
Видимость >10km
Погода -
Облачность Scattered Clouds 3600ft
Давление 1006
Изменить No Significant change. Runway 04: Clear and dry, , friction coefficient 0.70.
Необработанный UACC 210100Z 30003MPS 9999 SCT036CB 12/07 Q1006 R04/0///70 NOSIG RMK QFE723/0964

VFR

12°C / 7°C

[Больше]
Ветер 290º 4kt
Видимость >10km
Погода -
Облачность Few Clouds 3600ft
Давление 1006
Изменить No Significant change. Runway 04: Wet or puddles, 26-50% contamination, friction coefficient 0.60.
Необработанный UACC 210030Z 29002MPS 9999 FEW036CB 12/07 Q1006 R04/25//60 NOSIG RMK QFE723/0964

VFR

12°C / 8°C

[Больше]
Ветер 330º variable 300º to 360º 4kt
Видимость >10km
Погода -
Облачность Broken Clouds 3600ft
Давление 1006
Изменить No Significant change. Runway 04: Wet or puddles, 26-50% contamination, friction coefficient 0.60.
Необработанный UACC 210000Z 33002MPS 300V360 9999 BKN036 12/08 Q1006 R04/25//60 NOSIG RMK QFE723/0964

VFR

12°C / 8°C

[Больше]
Ветер 350º 6kt
Видимость >10km
Погода -
Облачность Broken Clouds 3600ft
Давление 1006
Изменить No Significant change. Runway 04: Wet or puddles, 26-50% contamination, friction coefficient 0.60.
Необработанный UACC 202330Z 35003MPS 9999 BKN036 12/08 Q1006 R04/25//60 NOSIG RMK QFE723/0964

VFR

12°C / 10°C

[Больше]
Ветер 340º 6kt
Видимость >10km
Погода -
Облачность Few Clouds 700ft
Давление 1006
Изменить No Significant change. Runway 04: Wet or puddles, 26-50% contamination, friction coefficient 0.60.
Необработанный UACC 202300Z 34003MPS 9999 FEW007 BKN036 12/10 Q1006 R04/25//60 NOSIG RMK QFE723/0964

MVFR

11°C / 10°C

[Больше]
Ветер 310º 4kt
Видимость 6000m
Погода -
Облачность Few Clouds 700ft
Давление 1006
Изменить No Significant change. Runway 04: Wet or puddles, 26-50% contamination, friction coefficient 0.60.
Необработанный UACC 202230Z 31002MPS 6000 FEW007 BKN036 11/10 Q1006 R04/25//60 NOSIG RMK QFE723/0964

LIFR

12°C / 10°C

[Больше]
Ветер 280º 4kt
Видимость 260m. Runway 04: Visual range is 800m.
Погода patches Fog
Облачность Vertical Visibility of 0ft.
Давление 1005
Изменить Temporary: Visibility 0100. Fog . VV002 RMK QFE723/0964 . Runway 04: Wet or puddles, 26-50% contamination, friction coefficient 0.60.
Необработанный UACC 202200Z 28002MPS 0250 R04/0800N BCFG FEW007 12/10 Q1005 R04/25//60 TEMPO 0100 FG VV002 RMK QFE723/0964

LIFR

12°C / 11°C

[Больше]
Ветер 280º 4kt
Видимость 140m. Runway 04: Visual range is 600m.
Погода patches Fog
Облачность Vertical Visibility of 0ft.
Давление 1005
Изменить Temporary: Visibility 0100. Fog . VV002 RMK QBB120 QFE723/0964 . Runway 04: Wet or puddles, 26-50% contamination, friction coefficient 0.60.
Необработанный UACC 202130Z 28002MPS 0150 R04/0600N BCFG SCT004 12/11 Q1005 R04/25//60 TEMPO 0100 FG VV002 RMK QBB120 QFE723/0964

LIFR

12°C / 10°C

[Больше]
Ветер 280º 6kt
Видимость 100m. Runway 04: Visual range is 450m.
Погода patches Fog
Облачность Vertical Visibility of 0ft.
Давление 1005
Изменить No Significant change. Runway 04: Wet or puddles, 26-50% contamination, friction coefficient 0.60.
Необработанный UACC 202111Z 28003MPS 0100 R04/0450 BCFG FEW002 12/10 Q1005 R04/25//60 NOSIG RMK QBB070 QFE723/0964

IFR

12°C / 10°C

[Больше]
Ветер variable 2kt
Видимость 3000m
Погода Mist
Облачность Vertical Visibility of 0ft.
Давление 1005
Изменить No Significant change. Runway 04: Wet or puddles, 26-50% contamination, friction coefficient 0.60.
Необработанный UACC 202100Z VRB01MPS 3000 BR NSC 12/10 Q1005 R04/25//60 NOSIG RMK QFE723/0964

MVFR

12°C / 10°C

[Больше]
Ветер 330º variable 290º to 020º 4kt
Видимость 6000m
Погода -
Облачность Scattered Clouds 1400ft
Давление 1005
Изменить No Significant change. Runway 04: Wet or puddles, 26-50% contamination, friction coefficient 0.60.
Необработанный UACC 202030Z 33002MPS 290V020 6000 SCT014 12/10 Q1005 R04/25//60 NOSIG RMK QFE723/0964

TAF для 51.02°С 71.47°В (UACC)

From till


Maximum Temperature 14ºC on . Minimum Temperature 8ºC on .
From till Wind 300º 16kt. Gust 25kt. Visibility 10km or more. Scattered Clouds 3000ft. Broken Clouds 4000ft.
Temporarly from till Wind 320º 31kt. Gust 41kt. Visibility 3100m. Light Showers Rain . Scattered Clouds 1100ft. Broken Clouds 2000ft.
Temporarly from till Visibility 3100m. Light Showers Rain . Scattered Clouds 1100ft. Broken Clouds 2000ft.
Becoming from till Wind 340º 8kt. Visibility 10km or more. Scattered Clouds 1100ft. Broken Clouds 2000ft.
Temporarly from till Visibility 3100m. Light Showers Rain . Broken Clouds 2000ft.

Необработанный: TAF UACC 210500Z 2106/2206 30008G13MPS 9999 SCT030CB BKN040 TX14/2110Z TN08/2124Z TEMPO 2106/2115 32016G21MPS 3100 -SHRA SCT011 BKN020CB TEMPO 2115/2118 3100 -SHRA SCT011 BKN020CB BECMG 2118/2120 34004MPS SCT011 BKN020 TEMPO 2202/2206 3100 -SHRA BKN020CB

rainNOW

0.0 мм
0.0 мм
0.0 мм
0.0 мм
0.0 мм
0.0 мм
0.0 мм
0.0 мм
0.0 мм
0.0 мм
0.0 мм
0.0 мм

Текущие спутниковые изображения и снимки дождя для 51.02°С 71.47°В

Указатель местности находится на 51.02°С 71.47°В. [Больше]

Спутниковое изображение в реальном времени сочетает в себе видимый свет в дневное время с инфракрасным излучением в ночное время. Ночью изображение получается не темным, так как инфракрасное излучение может обнаружить разницу температур. К сожалению, низкие облака и туман трудно отличить от температуры у поверхности земли и поэтому могут быть почти незаметны ночью. Спутниковые снимки Meteosat для Европы обновляются каждые 5 минут в режиме реального времени.Снимки GOES-16/GOES-17 (Северная и Южная Америка) и Химавари (Азия) обновляются каждые 10 минут.

Копирайт 2021 EUMETSAT / meteoblue. / Копирайт 2021 meteoblue

Радарный и сверхкраткосрочный прогноз осадков для 51.02°С 71.47°В

Индикатор местности находится на 51.02°С 71.47°В. Анимация показывает радар осадков за последний час, а также прогноз погоды для1h. Умеренная морось или легкий снег могут быть незаметны для радара. Интенсивность осадковмаркированна цветной кодировкой, начиная со светло-синего и заканчивая темно-пурпурным.